createdAt,value
2023-01-03T00:01:56.672Z,5.10
2023-01-03T00:04:23.384Z,5.40
2023-01-03T00:06:51.260Z,5.50
2023-01-03T00:09:20.703Z,5.50
2023-01-03T00:12:07.288Z,5.07
2023-01-03T00:14:36.884Z,5.10
2023-01-03T00:17:04.425Z,4.90
2023-01-03T00:19:33.515Z,5.60
2023-01-03T00:22:00.043Z,4.90
2023-01-03T00:24:26.633Z,5.23
2023-01-03T00:26:53.155Z,4.67
2023-01-03T00:29:19.721Z,5.27
2023-01-03T00:31:46.698Z,4.87
2023-01-03T00:34:13.291Z,4.93
2023-01-03T00:36:39.785Z,4.80
2023-01-03T00:39:06.374Z,4.70
2023-01-03T00:41:32.931Z,4.83
2023-01-03T00:43:59.524Z,4.90
2023-01-03T00:46:26.075Z,4.53
2023-01-03T00:48:52.750Z,4.60
2023-01-03T00:51:26.812Z,4.30
2023-01-03T00:53:55.940Z,4.80
2023-01-03T00:56:23.982Z,4.23
2023-01-03T00:58:50.708Z,4.83
2023-01-03T01:01:22.348Z,4.90
2023-01-03T01:03:52.519Z,4.70
2023-01-03T01:06:24.893Z,5.30
2023-01-03T01:08:53.169Z,4.90
2023-01-03T01:11:19.927Z,4.30
2023-01-03T01:13:46.563Z,4.80
2023-01-03T01:16:18.101Z,4.80
2023-01-03T01:18:45.663Z,4.90
2023-01-03T01:21:14.451Z,4.40
2023-01-03T01:23:41.252Z,4.93
2023-01-03T01:26:08.938Z,4.60
2023-01-03T01:28:35.497Z,4.43
2023-01-03T01:31:02.577Z,4.40
2023-01-03T01:33:29.191Z,4.20
2023-01-03T01:35:55.774Z,4.13
2023-01-03T01:38:22.328Z,4.27
2023-01-03T01:40:48.850Z,4.30
2023-01-03T01:43:41.753Z,4.10
2023-01-03T01:46:13.055Z,4.40
2023-01-03T01:48:39.668Z,3.53
2023-01-03T01:51:06.207Z,4.10
2023-01-03T01:53:34.660Z,4.00
2023-01-03T01:56:08.850Z,3.87
2023-01-03T01:58:39.927Z,4.00
2023-01-03T02:01:09.383Z,3.87
2023-01-03T02:03:35.999Z,4.03
2023-01-03T02:06:03.066Z,4.10
2023-01-03T02:08:32.675Z,3.80
2023-01-03T02:11:07.199Z,4.03
2023-01-03T02:13:51.497Z,3.90
2023-01-03T02:16:27.136Z,3.97
2023-01-03T02:19:27.950Z,3.87
2023-01-03T02:22:13.012Z,3.60
2023-01-03T02:24:58.614Z,4.00
2023-01-03T02:27:43.894Z,3.70
2023-01-03T02:30:28.583Z,3.57
2023-01-03T02:33:19.454Z,3.57
2023-01-03T02:35:59.361Z,3.20
2023-01-03T02:38:31.466Z,3.70
2023-01-03T02:41:09.161Z,3.70
2023-01-03T02:43:41.061Z,3.60
2023-01-03T02:46:23.980Z,3.33
2023-01-03T02:49:10.388Z,3.33
2023-01-03T02:51:43.748Z,3.47
2023-01-03T02:54:11.964Z,3.33
2023-01-03T02:56:42.500Z,3.23
2023-01-03T02:59:12.316Z,3.60
2023-01-03T03:01:42.920Z,3.23
2023-01-03T03:04:09.553Z,3.33
2023-01-03T03:06:54.660Z,3.10
2023-01-03T03:09:21.169Z,3.40
2023-01-03T03:12:06.263Z,3.20
2023-01-03T03:14:39.102Z,3.03
2023-01-03T03:17:18.067Z,3.00
2023-01-03T03:20:06.461Z,3.40
2023-01-03T03:22:53.610Z,3.30
2023-01-03T03:25:23.277Z,3.17
2023-01-03T03:28:10.088Z,3.10
2023-01-03T03:30:38.450Z,3.10
2023-01-03T03:33:06.374Z,3.30
2023-01-03T03:35:36.760Z,3.30
2023-01-03T03:38:03.280Z,3.20
2023-01-03T03:40:48.557Z,3.10
2023-01-03T03:43:44.235Z,3.33
2023-01-03T03:46:13.909Z,3.00
2023-01-03T03:49:11.712Z,3.10
2023-01-03T03:51:38.315Z,3.50
2023-01-03T03:54:08.298Z,2.97
2023-01-03T03:56:34.835Z,3.13
2023-01-03T03:59:06.482Z,3.00
2023-01-03T04:01:33.354Z,3.40
2023-01-03T04:04:02.719Z,3.00
2023-01-03T04:06:35.343Z,3.10
2023-01-03T04:09:01.964Z,2.87
2023-01-03T04:11:28.518Z,3.33
2023-01-03T04:13:55.077Z,2.83
2023-01-03T04:16:21.736Z,2.73
2023-01-03T04:18:48.445Z,2.70
2023-01-03T04:21:20.512Z,2.90
2023-01-03T04:23:47.419Z,2.60
2023-01-03T04:26:14.139Z,2.87
2023-01-03T04:28:40.671Z,3.03
2023-01-03T04:31:07.262Z,2.83
2023-01-03T04:33:33.848Z,2.70
2023-01-03T04:36:00.392Z,2.87
2023-01-03T04:38:26.948Z,2.80
2023-01-03T04:40:53.518Z,2.70
2023-01-03T04:43:38.684Z,2.90
2023-01-03T04:46:05.425Z,2.43
2023-01-03T04:48:32.033Z,2.73
2023-01-03T04:50:59.457Z,2.57
2023-01-03T04:53:26.526Z,2.60
2023-01-03T04:55:53.906Z,2.60
2023-01-03T04:58:20.458Z,2.90
2023-01-03T05:00:47.095Z,2.60
2023-01-03T05:03:13.690Z,2.80
2023-01-03T05:05:40.611Z,2.80
2023-01-03T05:08:08.074Z,2.27
2023-01-03T05:10:34.747Z,2.70
2023-01-03T05:13:01.319Z,2.47
2023-01-03T05:15:31.818Z,2.50
2023-01-03T05:17:58.436Z,2.40
2023-01-03T05:20:51.224Z,2.27
2023-01-03T05:23:36.460Z,2.37
2023-01-03T05:26:05.460Z,2.47
2023-01-03T05:28:32.026Z,2.63
2023-01-03T05:30:58.984Z,2.23
2023-01-03T05:33:25.708Z,2.47
2023-01-03T05:35:52.280Z,2.17
2023-01-03T05:38:18.835Z,2.43
2023-01-03T05:40:45.429Z,2.57
2023-01-03T05:43:12.064Z,2.37
2023-01-03T05:45:38.874Z,2.20
2023-01-03T05:48:06.524Z,2.40
2023-01-03T05:50:33.039Z,2.30
2023-01-03T05:52:59.611Z,2.57
2023-01-03T05:55:26.180Z,2.23
2023-01-03T05:57:52.995Z,2.57
2023-01-03T06:00:19.654Z,2.47
2023-01-03T06:02:46.273Z,2.23
2023-01-03T06:05:13.035Z,2.50
2023-01-03T06:07:39.595Z,2.17
2023-01-03T06:10:06.706Z,2.30
2023-01-03T06:12:33.259Z,2.20
2023-01-03T06:14:59.902Z,2.20
2023-01-03T06:17:45.094Z,1.93
2023-01-03T06:20:11.629Z,2.17
2023-01-03T06:22:38.237Z,2.10
2023-01-03T06:25:05.119Z,2.20
2023-01-03T06:27:31.684Z,2.17
2023-01-03T06:29:58.347Z,2.37
2023-01-03T06:32:25.073Z,2.30
2023-01-03T06:34:51.609Z,2.60
2023-01-03T06:37:18.210Z,2.30
2023-01-03T06:39:45.678Z,2.30
2023-01-03T06:42:30.907Z,2.30
2023-01-03T06:45:15.882Z,2.00
2023-01-03T06:48:00.957Z,1.80
2023-01-03T06:50:46.048Z,2.33
2023-01-03T06:53:16.358Z,2.33
2023-01-03T06:55:43.918Z,2.23
2023-01-03T06:58:10.823Z,2.20
2023-01-03T07:00:37.533Z,2.00
2023-01-03T07:03:10.716Z,2.03
2023-01-03T07:05:38.360Z,2.47
2023-01-03T07:08:04.946Z,1.97
2023-01-03T07:10:31.476Z,2.37
2023-01-03T07:13:19.172Z,2.10
2023-01-03T07:15:45.992Z,2.27
2023-01-03T07:18:12.525Z,1.93
2023-01-03T07:20:43.476Z,1.90
2023-01-03T07:23:10.331Z,1.97
2023-01-03T07:25:41.133Z,2.17
2023-01-03T07:28:11.835Z,2.00
2023-01-03T07:30:42.484Z,2.20
2023-01-03T07:33:09.595Z,1.70
2023-01-03T07:35:36.302Z,2.00
2023-01-03T07:38:03.070Z,1.90
2023-01-03T07:40:29.758Z,2.10
2023-01-03T07:43:15.417Z,1.80
2023-01-03T07:45:42.562Z,2.00
2023-01-03T07:48:09.567Z,2.07
2023-01-03T07:50:37.042Z,2.00
2023-01-03T07:53:04.163Z,1.90
2023-01-03T07:55:32.460Z,2.10
2023-01-03T07:57:59.242Z,2.00
2023-01-03T08:00:25.937Z,1.83
2023-01-03T08:02:54.486Z,2.00
2023-01-03T08:05:24.837Z,1.83
2023-01-03T08:07:51.771Z,2.10
2023-01-03T08:10:36.948Z,1.80
2023-01-03T08:13:18.629Z,2.20
2023-01-03T08:15:48.749Z,1.83
2023-01-03T08:18:16.285Z,1.80
2023-01-03T08:20:42.959Z,1.97
2023-01-03T08:23:09.566Z,1.80
2023-01-03T08:25:36.155Z,2.00
2023-01-03T08:28:02.860Z,1.90
2023-01-03T08:30:29.759Z,2.10
2023-01-03T08:32:56.573Z,1.73
2023-01-03T08:35:23.327Z,2.00
2023-01-03T08:37:50.376Z,1.83
2023-01-03T08:40:17.239Z,1.70
2023-01-03T08:42:44.047Z,1.90
2023-01-03T08:45:12.389Z,1.80
2023-01-03T08:47:38.935Z,2.00
2023-01-03T08:50:05.975Z,2.00
2023-01-03T08:52:35.352Z,1.70
2023-01-03T08:55:02.511Z,1.73
2023-01-03T08:57:29.310Z,1.70
2023-01-03T08:59:55.843Z,1.80
2023-01-03T09:02:22.493Z,1.93
2023-01-03T09:04:49.222Z,1.90
2023-01-03T09:07:15.769Z,1.80
2023-01-03T09:09:42.286Z,1.93
2023-01-03T09:12:08.838Z,2.10
2023-01-03T09:14:35.373Z,1.73
2023-01-03T09:17:02.026Z,1.70
2023-01-03T09:19:28.558Z,1.97
2023-01-03T09:21:55.235Z,1.90
2023-01-03T09:24:21.811Z,2.00
2023-01-03T09:26:54.242Z,1.80
2023-01-03T09:29:21.245Z,1.90
2023-01-03T09:31:48.020Z,1.90
2023-01-03T09:34:14.673Z,1.80
2023-01-03T09:36:41.382Z,1.73
2023-01-03T09:39:07.932Z,1.80
2023-01-03T09:41:34.557Z,2.03
2023-01-03T09:44:03.657Z,1.90
2023-01-03T09:46:30.827Z,1.70
2023-01-03T09:48:57.477Z,1.90
2023-01-03T09:51:45.130Z,1.90
2023-01-03T09:54:31.752Z,2.00
2023-01-03T09:57:16.838Z,1.90
2023-01-03T10:00:01.905Z,2.03
2023-01-03T10:03:02.552Z,2.00
2023-01-03T10:05:37.996Z,1.80
2023-01-03T10:08:35.410Z,1.70
2023-01-03T10:11:12.393Z,1.90
2023-01-03T10:13:57.241Z,1.80
2023-01-03T10:16:32.926Z,1.83
2023-01-03T10:19:05.040Z,1.70
2023-01-03T10:21:40.986Z,1.60
2023-01-03T10:24:19.260Z,1.80
2023-01-03T10:26:45.812Z,1.80
2023-01-03T10:29:13.322Z,1.63
2023-01-03T10:32:00.445Z,1.93
2023-01-03T10:34:27.038Z,1.90
2023-01-03T10:36:53.545Z,1.90
2023-01-03T10:39:31.126Z,2.00
2023-01-03T10:41:58.693Z,1.80
2023-01-03T10:44:29.945Z,1.97
2023-01-03T10:46:58.852Z,1.57
2023-01-03T10:49:29.348Z,1.70
2023-01-03T10:52:08.989Z,1.87
2023-01-03T10:54:42.177Z,1.90
2023-01-03T10:57:43.777Z,2.00
2023-01-03T11:00:24.062Z,1.80
2023-01-03T11:02:50.856Z,1.67
2023-01-03T11:05:19.297Z,1.80
2023-01-03T11:07:54.460Z,1.60
2023-01-03T11:10:21.155Z,1.70
2023-01-03T11:12:47.782Z,1.90
2023-01-03T11:15:17.440Z,1.60
2023-01-03T11:18:01.566Z,1.90
2023-01-03T11:20:40.513Z,2.03
2023-01-03T11:23:27.246Z,1.70
2023-01-03T11:26:00.006Z,1.90
2023-01-03T11:28:44.246Z,1.80
2023-01-03T11:31:16.727Z,1.80
2023-01-03T11:33:49.145Z,1.60
2023-01-03T11:36:34.429Z,1.60
2023-01-03T11:39:20.100Z,1.60
2023-01-03T11:41:55.880Z,1.87
2023-01-03T11:44:50.229Z,1.60
2023-01-03T11:47:28.823Z,1.70
2023-01-03T11:50:13.561Z,1.90
2023-01-03T11:53:01.905Z,1.57
2023-01-03T11:55:34.918Z,1.60
2023-01-03T11:58:07.507Z,1.80
2023-01-03T12:00:41.974Z,1.70
2023-01-03T12:03:39.436Z,1.63
2023-01-03T12:06:08.249Z,1.67
2023-01-03T12:08:37.734Z,1.90
2023-01-03T12:11:31.112Z,1.70
2023-01-03T12:14:09.949Z,1.60
2023-01-03T12:16:43.965Z,1.70
2023-01-03T12:19:24.607Z,1.73
2023-01-03T12:21:57.107Z,1.70
2023-01-03T12:24:34.656Z,1.77
2023-01-03T12:27:09.567Z,1.80
2023-01-03T12:29:47.549Z,1.60
2023-01-03T12:32:17.034Z,1.77
2023-01-03T12:35:00.904Z,1.60
2023-01-03T12:37:30.010Z,1.60
2023-01-03T12:40:05.620Z,1.60
2023-01-03T12:42:33.808Z,1.57
2023-01-03T12:45:12.260Z,1.70
2023-01-03T12:47:56.791Z,1.70
2023-01-03T12:50:42.011Z,1.60
2023-01-03T12:53:40.181Z,1.67
2023-01-03T12:56:09.775Z,1.70
2023-01-03T12:58:53.000Z,1.70
2023-01-03T13:01:48.853Z,1.73
2023-01-03T13:04:23.360Z,1.50
2023-01-03T13:07:02.131Z,1.67
2023-01-03T13:09:32.116Z,1.63
2023-01-03T13:12:28.890Z,1.80
2023-01-03T13:15:19.100Z,1.70
2023-01-03T13:17:50.219Z,1.70
2023-01-03T13:20:31.963Z,1.67
2023-01-03T13:23:12.477Z,1.80
2023-01-03T13:25:40.511Z,1.63
2023-01-03T13:28:22.277Z,1.90
2023-01-03T13:30:48.883Z,1.67
2023-01-03T13:33:19.844Z,1.60
2023-01-03T13:35:46.249Z,1.50
2023-01-03T13:38:23.812Z,1.67
2023-01-03T13:41:19.914Z,1.50
2023-01-03T13:43:40.278Z,1.77
2023-01-03T13:46:25.015Z,1.73
2023-01-03T13:48:56.636Z,1.80
2023-01-03T13:51:23.242Z,1.53
2023-01-03T13:53:58.707Z,1.80
2023-01-03T13:56:29.628Z,1.60
2023-01-03T13:59:02.102Z,1.73
2023-01-03T14:01:59.922Z,1.50
2023-01-03T14:04:46.139Z,1.50
2023-01-03T14:07:31.071Z,1.50
2023-01-03T14:10:19.513Z,1.50
2023-01-03T14:13:10.759Z,1.63
2023-01-03T14:15:37.346Z,1.73
2023-01-03T14:18:28.549Z,1.60
2023-01-03T14:20:55.836Z,1.60
2023-01-03T14:23:58.562Z,1.70
2023-01-03T14:26:16.001Z,1.70
2023-01-03T14:28:46.737Z,1.60
2023-01-03T14:31:24.286Z,1.70
2023-01-03T14:33:57.829Z,1.50
2023-01-03T14:36:24.434Z,1.70
2023-01-03T14:38:58.665Z,1.70
2023-01-03T14:41:37.437Z,1.60
2023-01-03T14:44:07.830Z,1.60
2023-01-03T14:46:34.436Z,1.30
2023-01-03T14:49:03.825Z,1.50
2023-01-03T14:51:32.252Z,1.40
2023-01-03T14:53:59.431Z,1.50
2023-01-03T14:56:26.823Z,1.50
2023-01-03T14:58:53.484Z,1.53
2023-01-03T15:01:20.181Z,1.57
2023-01-03T15:03:47.577Z,1.50
2023-01-03T15:06:26.599Z,1.50
2023-01-03T15:08:54.973Z,1.40
2023-01-03T15:11:28.340Z,1.77
2023-01-03T15:14:03.191Z,1.50
2023-01-03T15:16:32.300Z,1.60
2023-01-03T15:19:12.015Z,1.33
2023-01-03T15:21:39.099Z,1.50
2023-01-03T15:24:06.091Z,1.60
2023-01-03T15:26:39.824Z,1.40
2023-01-03T15:29:13.105Z,1.67
2023-01-03T15:31:58.622Z,1.30
2023-01-03T15:34:38.681Z,2.00
2023-01-03T15:37:17.068Z,3.20
2023-01-03T15:39:47.797Z,3.10
2023-01-03T15:42:44.613Z,3.53
2023-01-03T15:45:24.393Z,4.00
2023-01-03T15:47:51.231Z,3.90
2023-01-03T15:50:18.941Z,3.93
2023-01-03T15:52:48.731Z,3.40
2023-01-03T15:55:17.900Z,3.50
2023-01-03T15:57:50.977Z,3.63
2023-01-03T16:00:18.939Z,3.00
2023-01-03T16:02:45.726Z,3.10
2023-01-03T16:05:21.561Z,2.63
2023-01-03T16:07:49.393Z,2.60
2023-01-03T16:10:16.084Z,2.57
2023-01-03T16:12:42.776Z,2.20
2023-01-03T16:15:16.446Z,2.40
2023-01-03T16:17:43.100Z,2.43
2023-01-03T16:20:14.028Z,2.60
2023-01-03T16:22:52.276Z,2.47
2023-01-03T16:25:22.378Z,2.37
2023-01-03T16:27:48.981Z,2.17
2023-01-03T16:30:15.541Z,2.63
2023-01-03T16:32:42.453Z,2.47
2023-01-03T16:35:15.124Z,2.70
2023-01-03T16:37:41.903Z,3.20
2023-01-03T16:40:16.137Z,2.70
2023-01-03T16:42:42.659Z,2.80
2023-01-03T16:45:09.658Z,2.60
2023-01-03T16:47:36.334Z,2.83
2023-01-03T16:50:04.712Z,2.70
2023-01-03T16:52:39.017Z,2.40
2023-01-03T16:55:25.222Z,2.50
2023-01-03T16:57:54.456Z,3.00
2023-01-03T17:00:25.501Z,3.07
2023-01-03T17:02:52.441Z,3.03
2023-01-03T17:05:19.093Z,2.67
2023-01-03T17:07:46.811Z,2.67
2023-01-03T17:10:26.950Z,2.60
2023-01-03T17:12:54.263Z,2.30
2023-01-03T17:15:20.788Z,2.20
2023-01-03T17:17:47.364Z,2.60
2023-01-03T17:20:15.309Z,2.53
2023-01-03T17:22:56.288Z,2.50
2023-01-03T17:25:22.898Z,2.63
2023-01-03T17:27:54.291Z,2.50
2023-01-03T17:30:25.254Z,2.53
2023-01-03T17:32:51.995Z,2.50
2023-01-03T17:35:18.631Z,2.57
2023-01-03T17:38:23.470Z,3.87
2023-01-03T17:40:34.184Z,3.20
2023-01-03T17:43:01.285Z,3.37
2023-01-03T17:45:46.537Z,3.10
2023-01-03T17:48:32.295Z,2.60
2023-01-03T17:50:58.921Z,2.90
2023-01-03T17:53:25.549Z,3.03
2023-01-03T17:55:52.264Z,3.40
2023-01-03T17:58:25.015Z,2.83
2023-01-03T18:00:51.541Z,2.77
2023-01-03T18:03:18.178Z,3.07
2023-01-03T18:05:44.961Z,3.00
2023-01-03T18:08:18.519Z,3.40
2023-01-03T18:10:47.136Z,3.00
2023-01-03T18:13:29.999Z,2.93
2023-01-03T18:15:56.694Z,2.83
2023-01-03T18:18:24.275Z,3.10
2023-01-03T18:20:51.015Z,3.50
2023-01-03T18:23:19.813Z,3.00
2023-01-03T18:25:46.455Z,3.47
2023-01-03T18:28:13.414Z,3.03
2023-01-03T18:30:39.942Z,3.70
2023-01-03T18:33:06.533Z,3.10
2023-01-03T18:35:37.823Z,3.33
2023-01-03T18:38:05.150Z,3.60
2023-01-03T18:40:31.817Z,3.43
2023-01-03T18:43:24.966Z,3.13
2023-01-03T18:45:51.712Z,3.40
2023-01-03T18:48:20.118Z,3.40
2023-01-03T18:50:53.667Z,3.73
2023-01-03T18:53:24.631Z,3.77
2023-01-03T18:55:51.176Z,3.60
2023-01-03T18:58:23.839Z,3.70
2023-01-03T19:00:50.418Z,3.30
2023-01-03T19:03:26.660Z,3.70
2023-01-03T19:05:55.228Z,3.33
2023-01-03T19:08:23.345Z,3.73
2023-01-03T19:10:50.048Z,4.10
2023-01-03T19:13:30.971Z,3.63
2023-01-03T19:15:57.657Z,4.07
2023-01-03T19:18:24.430Z,3.67
2023-01-03T19:20:51.094Z,3.77
2023-01-03T19:23:24.113Z,3.60
2023-01-03T19:25:50.878Z,3.40
2023-01-03T19:28:21.969Z,4.07
2023-01-03T19:30:48.556Z,3.63
2023-01-03T19:33:15.816Z,3.50
2023-01-03T19:35:42.993Z,3.40
2023-01-03T19:38:09.703Z,3.60
2023-01-03T19:40:37.138Z,3.90
2023-01-03T19:43:03.770Z,3.60
2023-01-03T19:45:30.457Z,3.57
2023-01-03T19:47:58.113Z,3.90
2023-01-03T19:50:29.574Z,3.80
2023-01-03T19:52:56.092Z,3.77
2023-01-03T19:55:24.678Z,3.70
2023-01-03T19:57:51.224Z,3.83
2023-01-03T20:00:24.972Z,3.87
2023-01-03T20:02:52.684Z,3.80
2023-01-03T20:05:21.413Z,3.83
2023-01-03T20:07:48.012Z,4.00
2023-01-03T20:10:22.431Z,3.63
2023-01-03T20:12:50.367Z,3.83
2023-01-03T20:15:26.772Z,3.80
2023-01-03T20:17:53.841Z,3.60
2023-01-03T20:20:21.045Z,4.23
2023-01-03T20:23:05.705Z,3.90
2023-01-03T20:25:33.158Z,4.17
2023-01-03T20:28:00.291Z,3.90
2023-01-03T20:30:28.523Z,4.53
2023-01-03T20:32:55.274Z,4.50
2023-01-03T20:38:11.119Z,4.20
2023-01-03T20:40:38.209Z,4.13
2023-01-03T20:43:09.403Z,3.70
2023-01-03T20:45:42.896Z,4.00
2023-01-03T20:48:25.028Z,4.23
2023-01-03T20:50:52.801Z,3.80
2023-01-03T20:53:25.976Z,4.03
2023-01-03T20:55:53.239Z,4.40
2023-01-03T20:58:21.840Z,4.10
2023-01-03T21:00:48.807Z,4.23
2023-01-03T21:03:15.716Z,4.07
2023-01-03T21:05:45.124Z,4.10
2023-01-03T21:08:32.812Z,3.77
2023-01-03T21:10:59.859Z,3.93
2023-01-03T21:13:26.804Z,3.93
2023-01-03T21:15:53.734Z,4.00
2023-01-03T21:18:23.333Z,4.40
2023-01-03T21:20:50.015Z,3.90
2023-01-03T21:23:20.794Z,4.47
2023-01-03T21:25:47.559Z,4.00
2023-01-03T21:28:15.135Z,4.30
2023-01-03T21:30:44.883Z,4.20
2023-01-03T21:33:16.324Z,4.13
2023-01-03T21:35:43.435Z,3.90
2023-01-03T21:38:10.091Z,3.90
2023-01-03T21:40:36.853Z,4.53
2023-01-03T21:43:05.115Z,4.10
2023-01-03T21:45:40.157Z,4.10
2023-01-03T21:48:09.817Z,3.80
2023-01-03T21:50:48.865Z,3.73
2023-01-03T21:53:22.893Z,4.07
2023-01-03T21:55:52.721Z,3.90
2023-01-03T21:58:24.245Z,3.90
2023-01-03T22:00:51.127Z,4.10
2023-01-03T22:03:36.504Z,4.30
2023-01-03T22:06:11.156Z,4.00
2023-01-03T22:08:38.547Z,3.90
2023-01-03T22:11:12.044Z,4.13
2023-01-03T22:13:38.982Z,3.90
2023-01-03T22:16:11.404Z,4.23
2023-01-03T22:18:38.257Z,3.53
2023-01-03T22:21:07.096Z,4.10
2023-01-03T22:23:36.602Z,3.77
2023-01-03T22:26:08.646Z,3.97
2023-01-03T22:28:36.182Z,4.37
2023-01-03T22:31:13.912Z,4.00
2023-01-03T22:33:40.694Z,3.73
2023-01-03T22:36:11.527Z,3.80
2023-01-03T22:38:38.515Z,3.67
2023-01-03T22:41:13.256Z,3.77
2023-01-03T22:43:40.010Z,3.97
2023-01-03T22:46:11.340Z,3.70
2023-01-03T22:48:40.637Z,3.83
2023-01-03T22:51:09.362Z,4.00
2023-01-03T22:53:37.375Z,3.57
2023-01-03T22:56:16.095Z,4.03
2023-01-03T22:58:43.148Z,3.90
2023-01-03T23:01:16.257Z,3.50
2023-01-03T23:03:44.155Z,4.00
2023-01-03T23:06:13.360Z,4.23
2023-01-03T23:08:40.294Z,3.90
2023-01-03T23:11:35.062Z,4.13
2023-01-03T23:14:14.167Z,4.27
2023-01-03T23:16:44.422Z,3.60
2023-01-03T23:19:12.559Z,3.80
2023-01-03T23:21:42.514Z,4.20
2023-01-03T23:24:17.436Z,3.60
2023-01-03T23:26:44.314Z,3.70
2023-01-03T23:29:17.120Z,3.87
2023-01-03T23:31:44.599Z,3.30
2023-01-03T23:34:12.270Z,4.13
2023-01-03T23:36:45.086Z,3.73
2023-01-03T23:39:15.873Z,3.47
2023-01-03T23:41:46.168Z,3.50
2023-01-03T23:44:13.156Z,4.20
2023-01-03T23:46:42.747Z,3.47
2023-01-03T23:49:14.014Z,3.93
2023-01-03T23:51:40.737Z,3.70
2023-01-03T23:54:07.471Z,3.60
2023-01-03T23:56:34.383Z,3.60
2023-01-03T23:59:01.239Z,3.27
